sensor_id;sensor_type;location;lat;lon;timestamp;pressure;altitude;pressure_sealevel;temperature;humidity
13387;BME280;6763;48.524;9.044;2023-02-12T00:01:20;99738.81;;;9.16;46.71
13387;BME280;6763;48.524;9.044;2023-02-12T00:03:46;99732.75;;;9.16;46.52
13387;BME280;6763;48.524;9.044;2023-02-12T00:06:12;99732.75;;;9.16;46.32
13387;BME280;6763;48.524;9.044;2023-02-12T00:08:38;99722.47;;;9.17;46.70
13387;BME280;6763;48.524;9.044;2023-02-12T00:11:12;99720.78;;;9.18;47.27
13387;BME280;6763;48.524;9.044;2023-02-12T00:13:38;99731.94;;;9.18;47.00
13387;BME280;6763;48.524;9.044;2023-02-12T00:16:05;99731.94;;;9.17;47.18
13387;BME280;6763;48.524;9.044;2023-02-12T00:18:31;99725.88;;;9.16;46.74
13387;BME280;6763;48.524;9.044;2023-02-12T00:20:59;99719.84;;;9.16;47.34
13387;BME280;6763;48.524;9.044;2023-02-12T00:23:25;99727.59;;;9.16;47.21
13387;BME280;6763;48.524;9.044;2023-02-12T00:25:50;99730.16;;;9.14;47.46
13387;BME280;6763;48.524;9.044;2023-02-12T00:28:15;99731.00;;;9.13;46.97
13387;BME280;6763;48.524;9.044;2023-02-12T00:30:41;99725.84;;;9.13;46.92
13387;BME280;6763;48.524;9.044;2023-02-12T00:33:06;99734.44;;;9.12;47.06
13387;BME280;6763;48.524;9.044;2023-02-12T00:35:31;99731.81;;;9.11;47.79
13387;BME280;6763;48.524;9.044;2023-02-12T00:37:57;99740.44;;;9.10;47.43
13387;BME280;6763;48.524;9.044;2023-02-12T00:40:22;99742.13;;;9.09;46.94
13387;BME280;6763;48.524;9.044;2023-02-12T00:42:48;99735.28;;;9.11;47.38
13387;BME280;6763;48.524;9.044;2023-02-12T00:45:13;99743.03;;;9.11;47.09
13387;BME280;6763;48.524;9.044;2023-02-12T00:47:38;99742.19;;;9.12;46.91
13387;BME280;6763;48.524;9.044;2023-02-12T00:50:04;99736.22;;;9.15;47.33
13387;BME280;6763;48.524;9.044;2023-02-12T00:52:30;99735.41;;;9.19;46.95
13387;BME280;6763;48.524;9.044;2023-02-12T00:54:56;99743.16;;;9.19;47.06
13387;BME280;6763;48.524;9.044;2023-02-12T00:57:21;99743.22;;;9.22;46.84
13387;BME280;6763;48.524;9.044;2023-02-12T00:59:47;99731.19;;;9.22;46.72
13387;BME280;6763;48.524;9.044;2023-02-12T01:02:12;99731.19;;;9.24;46.84
13387;BME280;6763;48.524;9.044;2023-02-12T01:04:37;99739.00;;;9.25;46.40
13387;BME280;6763;48.524;9.044;2023-02-12T01:07:03;99740.72;;;9.26;46.98
13387;BME280;6763;48.524;9.044;2023-02-12T01:09:28;99745.03;;;9.26;46.41
13387;BME280;6763;48.524;9.044;2023-02-12T01:11:54;99751.97;;;9.28;47.04
13387;BME280;6763;48.524;9.044;2023-02-12T01:14:20;99741.66;;;9.30;46.54
13387;BME280;6763;48.524;9.044;2023-02-12T01:16:46;99747.72;;;9.32;46.29
13387;BME280;6763;48.524;9.044;2023-02-12T01:19:11;99743.44;;;9.34;46.71
13387;BME280;6763;48.524;9.044;2023-02-12T01:21:37;99743.41;;;9.32;46.90
13387;BME280;6763;48.524;9.044;2023-02-12T01:24:03;99743.34;;;9.29;46.71
13387;BME280;6763;48.524;9.044;2023-02-12T01:26:30;99749.41;;;9.30;47.05
13387;BME280;6763;48.524;9.044;2023-02-12T01:28:58;99745.94;;;9.29;46.89
13387;BME280;6763;48.524;9.044;2023-02-12T01:31:28;99739.06;;;9.28;47.24
13387;BME280;6763;48.524;9.044;2023-02-12T01:33:55;99744.13;;;9.24;46.95
13387;BME280;6763;48.524;9.044;2023-02-12T01:36:21;99742.34;;;9.21;46.91
13387;BME280;6763;48.524;9.044;2023-02-12T01:38:47;99740.56;;;9.19;47.56
13387;BME280;6763;48.524;9.044;2023-02-12T01:41:18;99746.56;;;9.16;47.16
13387;BME280;6763;48.524;9.044;2023-02-12T01:43:44;99746.53;;;9.15;47.18
13387;BME280;6763;48.524;9.044;2023-02-12T01:46:13;99752.53;;;9.14;47.73
13387;BME280;6763;48.524;9.044;2023-02-12T01:48:42;99745.59;;;9.11;47.78
13387;BME280;6763;48.524;9.044;2023-02-12T01:51:15;99754.22;;;9.10;47.41
13387;BME280;6763;48.524;9.044;2023-02-12T01:53:49;99752.47;;;9.09;47.18
13387;BME280;6763;48.524;9.044;2023-02-12T01:56:15;99756.75;;;9.09;47.27
13387;BME280;6763;48.524;9.044;2023-02-12T01:58:43;99752.47;;;9.11;47.13
13387;BME280;6763;48.524;9.044;2023-02-12T02:01:13;99756.00;;;9.13;47.08
13387;BME280;6763;48.524;9.044;2023-02-12T02:03:43;99745.69;;;9.16;46.56
13387;BME280;6763;48.524;9.044;2023-02-12T02:06:16;99750.03;;;9.17;46.96
13387;BME280;6763;48.524;9.044;2023-02-12T02:08:42;99752.63;;;9.18;46.73
13387;BME280;6763;48.524;9.044;2023-02-12T02:11:08;99745.75;;;9.19;46.88
13387;BME280;6763;48.524;9.044;2023-02-12T02:13:52;99743.22;;;9.20;46.69
13387;BME280;6763;48.524;9.044;2023-02-12T02:16:41;99743.22;;;9.22;46.51
13387;BME280;6763;48.524;9.044;2023-02-12T02:19:23;99739.75;;;9.21;46.63
13387;BME280;6763;48.524;9.044;2023-02-12T02:33:56;99734.69;;;9.26;46.63
13387;BME280;6763;48.524;9.044;2023-02-12T02:36:32;99731.31;;;9.28;46.40
13387;BME280;6763;48.524;9.044;2023-02-12T02:39:25;99725.22;;;9.26;46.39
13387;BME280;6763;48.524;9.044;2023-02-12T02:44:32;99717.41;;;9.23;47.13
13387;BME280;6763;48.524;9.044;2023-02-12T02:47:02;99707.03;;;9.20;46.82
13387;BME280;6763;48.524;9.044;2023-02-12T02:49:38;99714.75;;;9.19;46.85
13387;BME280;6763;48.524;9.044;2023-02-12T02:52:08;99708.69;;;9.18;47.22
13387;BME280;6763;48.524;9.044;2023-02-12T02:54:44;99709.56;;;9.19;47.16
13387;BME280;6763;48.524;9.044;2023-02-12T02:57:16;99713.03;;;9.21;47.25
13387;BME280;6763;48.524;9.044;2023-02-12T02:59:51;99714.81;;;9.23;47.36
13387;BME280;6763;48.524;9.044;2023-02-12T03:02:29;99712.22;;;9.23;47.36
13387;BME280;6763;48.524;9.044;2023-02-12T03:05:14;99709.63;;;9.22;47.63
13387;BME280;6763;48.524;9.044;2023-02-12T03:07:46;99710.44;;;9.19;47.30
13387;BME280;6763;48.524;9.044;2023-02-12T03:10:17;99710.44;;;9.18;47.65
13387;BME280;6763;48.524;9.044;2023-02-12T03:12:50;99708.63;;;9.14;47.66
13387;BME280;6763;48.524;9.044;2023-02-12T03:15:23;99707.78;;;9.15;47.72
13387;BME280;6763;48.524;9.044;2023-02-12T03:17:51;99709.50;;;9.13;47.41
13387;BME280;6763;48.524;9.044;2023-02-12T03:20:22;99709.50;;;9.13;47.49
13387;BME280;6763;48.524;9.044;2023-02-12T03:22:57;99712.03;;;9.11;47.77
13387;BME280;6763;48.524;9.044;2023-02-12T03:25:33;99718.91;;;9.11;47.68
13387;BME280;6763;48.524;9.044;2023-02-12T03:28:10;99714.59;;;9.10;47.59
13387;BME280;6763;48.524;9.044;2023-02-12T03:30:48;99712.03;;;9.11;47.67
13387;BME280;6763;48.524;9.044;2023-02-12T03:36:08;99725.81;;;9.10;47.91
13387;BME280;6763;48.524;9.044;2023-02-12T03:38:48;99722.34;;;9.11;47.57
13387;BME280;6763;48.524;9.044;2023-02-12T03:41:23;99719.78;;;9.11;47.67
13387;BME280;6763;48.524;9.044;2023-02-12T03:47:22;99730.91;;;9.07;48.08
13387;BME280;6763;48.524;9.044;2023-02-12T03:50:10;99727.44;;;9.07;47.45
13387;BME280;6763;48.524;9.044;2023-02-12T03:52:39;99729.22;;;9.09;47.99
13387;BME280;6763;48.524;9.044;2023-02-12T03:55:05;99717.19;;;9.10;48.03
13387;BME280;6763;48.524;9.044;2023-02-12T03:57:38;99723.22;;;9.10;47.74
13387;BME280;6763;48.524;9.044;2023-02-12T04:00:08;99721.53;;;9.12;48.01
13387;BME280;6763;48.524;9.044;2023-02-12T04:02:34;99725.84;;;9.13;47.77
13387;BME280;6763;48.524;9.044;2023-02-12T04:05:06;99720.72;;;9.15;47.93
13387;BME280;6763;48.524;9.044;2023-02-12T04:07:34;99718.13;;;9.16;48.20
13387;BME280;6763;48.524;9.044;2023-02-12T04:10:00;99724.19;;;9.17;48.15
13387;BME280;6763;48.524;9.044;2023-02-12T04:12:34;99726.78;;;9.17;47.76
13387;BME280;6763;48.524;9.044;2023-02-12T04:30:56;99751.00;;;9.23;48.04
13387;BME280;6763;48.524;9.044;2023-02-12T04:33:25;99750.19;;;9.26;47.69
13387;BME280;6763;48.524;9.044;2023-02-12T04:36:15;99745.03;;;9.26;47.88
13387;BME280;6763;48.524;9.044;2023-02-12T04:38:46;99752.00;;;9.30;47.94
13387;BME280;6763;48.524;9.044;2023-02-12T04:41:14;99751.16;;;9.31;47.24
13387;BME280;6763;48.524;9.044;2023-02-12T04:43:39;99748.53;;;9.29;47.73
13387;BME280;6763;48.524;9.044;2023-02-12T04:46:06;99746.81;;;9.28;47.88
13387;BME280;6763;48.524;9.044;2023-02-12T04:48:32;99751.09;;;9.29;47.98
13387;BME280;6763;48.524;9.044;2023-02-12T04:50:59;99747.69;;;9.30;47.71
13387;BME280;6763;48.524;9.044;2023-02-12T04:53:24;99752.00;;;9.30;47.62
13387;BME280;6763;48.524;9.044;2023-02-12T04:55:49;99752.00;;;9.30;47.33
13387;BME280;6763;48.524;9.044;2023-02-12T04:58:15;99749.41;;;9.31;47.82
13387;BME280;6763;48.524;9.044;2023-02-12T05:00:41;99740.84;;;9.32;47.52
13387;BME280;6763;48.524;9.044;2023-02-12T05:03:06;99741.75;;;9.36;47.60
13387;BME280;6763;48.524;9.044;2023-02-12T05:05:32;99740.03;;;9.36;47.66
13387;BME280;6763;48.524;9.044;2023-02-12T05:07:57;99742.66;;;9.38;47.28
13387;BME280;6763;48.524;9.044;2023-02-12T05:10:22;99744.41;;;9.41;47.51
13387;BME280;6763;48.524;9.044;2023-02-12T05:12:53;99745.31;;;9.43;47.25
13387;BME280;6763;48.524;9.044;2023-02-12T05:15:20;99750.47;;;9.41;47.35
13387;BME280;6763;48.524;9.044;2023-02-12T05:17:45;99750.41;;;9.40;47.74
13387;BME280;6763;48.524;9.044;2023-02-12T05:20:12;99742.59;;;9.35;47.89
13387;BME280;6763;48.524;9.044;2023-02-12T05:22:38;99737.38;;;9.32;48.12
13387;BME280;6763;48.524;9.044;2023-02-12T05:25:04;99741.59;;;9.27;48.42
13387;BME280;6763;48.524;9.044;2023-02-12T05:27:29;99740.63;;;9.22;48.59
13387;BME280;6763;48.524;9.044;2023-02-12T05:29:55;99744.03;;;9.18;48.29
13387;BME280;6763;48.524;9.044;2023-02-12T05:32:21;99751.72;;;9.15;48.72
13387;BME280;6763;48.524;9.044;2023-02-12T05:34:46;99740.44;;;9.11;48.77
13387;BME280;6763;48.524;9.044;2023-02-12T05:37:12;99746.34;;;9.06;48.71
13387;BME280;6763;48.524;9.044;2023-02-12T05:39:37;99748.94;;;9.04;48.99
13387;BME280;6763;48.524;9.044;2023-02-12T05:42:03;99745.47;;;9.04;48.75
13387;BME280;6763;48.524;9.044;2023-02-12T05:44:28;99747.16;;;9.03;48.97
13387;BME280;6763;48.524;9.044;2023-02-12T05:46:53;99748.88;;;9.03;48.54
13387;BME280;6763;48.524;9.044;2023-02-12T05:49:19;99741.13;;;9.03;48.54
13387;BME280;6763;48.524;9.044;2023-02-12T05:51:44;99742.00;;;9.03;48.79
13387;BME280;6763;48.524;9.044;2023-02-12T05:54:09;99742.00;;;9.03;48.89
13387;BME280;6763;48.524;9.044;2023-02-12T05:56:37;99740.38;;;9.07;48.32
13387;BME280;6763;48.524;9.044;2023-02-12T05:59:12;99739.56;;;9.09;48.79
13387;BME280;6763;48.524;9.044;2023-02-12T06:01:40;99738.72;;;9.10;48.25
13387;BME280;6763;48.524;9.044;2023-02-12T06:04:09;99741.31;;;9.10;48.76
13387;BME280;6763;48.524;9.044;2023-02-12T06:06:37;99738.72;;;9.10;48.57
13387;BME280;6763;48.524;9.044;2023-02-12T06:09:06;99742.13;;;9.08;48.77
13387;BME280;6763;48.524;9.044;2023-02-12T06:11:32;99742.13;;;9.08;48.92
13387;BME280;6763;48.524;9.044;2023-02-12T06:13:57;99745.47;;;9.04;48.63
13387;BME280;6763;48.524;9.044;2023-02-12T06:16:25;99743.69;;;9.01;49.17
13387;BME280;6763;48.524;9.044;2023-02-12T06:18:51;99740.16;;;8.96;49.42
13387;BME280;6763;48.524;9.044;2023-02-12T06:21:19;99740.97;;;8.92;49.36
13387;BME280;6763;48.524;9.044;2023-02-12T06:23:45;99744.28;;;8.87;49.17
13387;BME280;6763;48.524;9.044;2023-02-12T06:26:11;99745.09;;;8.84;49.45
13387;BME280;6763;48.524;9.044;2023-02-12T06:28:36;99741.56;;;8.81;49.81
13387;BME280;6763;48.524;9.044;2023-02-12T06:31:02;99745.84;;;8.79;49.86
13387;BME280;6763;48.524;9.044;2023-02-12T06:33:27;99742.31;;;8.75;50.20
13387;BME280;6763;48.524;9.044;2023-02-12T06:35:53;99748.28;;;8.72;49.73
13387;BME280;6763;48.524;9.044;2023-02-12T06:38:18;99749.09;;;8.70;50.12
13387;BME280;6763;48.524;9.044;2023-02-12T06:40:43;99756.03;;;8.71;50.17
13387;BME280;6763;48.524;9.044;2023-02-12T06:43:09;99751.69;;;8.71;49.57
13387;BME280;6763;48.524;9.044;2023-02-12T06:45:34;99757.78;;;8.73;49.79
13387;BME280;6763;48.524;9.044;2023-02-12T06:47:59;99754.41;;;8.78;49.67
13387;BME280;6763;48.524;9.044;2023-02-12T06:50:25;99757.06;;;8.81;49.59
13387;BME280;6763;48.524;9.044;2023-02-12T06:52:51;99757.13;;;8.84;49.13
13387;BME280;6763;48.524;9.044;2023-02-12T06:55:16;99759.78;;;8.87;49.63
13387;BME280;6763;48.524;9.044;2023-02-12T06:57:42;99760.69;;;8.90;49.69
13387;BME280;6763;48.524;9.044;2023-02-12T07:00:08;99766.78;;;8.94;48.82
13387;BME280;6763;48.524;9.044;2023-02-12T07:02:34;99769.44;;;8.97;49.08
13387;BME280;6763;48.524;9.044;2023-02-12T07:04:59;99766.88;;;8.98;49.37
13387;BME280;6763;48.524;9.044;2023-02-12T07:07:25;99770.34;;;9.00;48.99
13387;BME280;6763;48.524;9.044;2023-02-12T07:09:50;99774.69;;;9.00;49.24
13387;BME280;6763;48.524;9.044;2023-02-12T07:12:15;99776.34;;;8.98;48.88
13387;BME280;6763;48.524;9.044;2023-02-12T07:14:41;99777.97;;;8.93;49.07
13387;BME280;6763;48.524;9.044;2023-02-12T07:17:06;99777.06;;;8.91;49.04
13387;BME280;6763;48.524;9.044;2023-02-12T07:19:33;99771.03;;;8.90;49.50
13387;BME280;6763;48.524;9.044;2023-02-12T07:21:59;99775.28;;;8.87;49.09
13387;BME280;6763;48.524;9.044;2023-02-12T07:24:24;99776.03;;;8.83;49.65
13387;BME280;6763;48.524;9.044;2023-02-12T07:26:49;99783.69;;;8.77;49.53
13387;BME280;6763;48.524;9.044;2023-02-12T07:29:15;99780.97;;;8.72;49.54
13387;BME280;6763;48.524;9.044;2023-02-12T07:31:41;99792.19;;;8.72;49.69
13387;BME280;6763;48.524;9.044;2023-02-12T07:34:08;99782.81;;;8.76;49.49
13387;BME280;6763;48.524;9.044;2023-02-12T07:36:33;99791.53;;;8.83;49.91
13387;BME280;6763;48.524;9.044;2023-02-12T07:38:59;99774.41;;;8.88;49.83
13387;BME280;6763;48.524;9.044;2023-02-12T07:41:30;99781.56;;;8.99;49.58
13387;BME280;6763;48.524;9.044;2023-02-12T07:44:07;99776.53;;;9.08;49.82
13387;BME280;6763;48.524;9.044;2023-02-12T07:49:05;99788.25;;;9.34;49.17
13387;BME280;6763;48.524;9.044;2023-02-12T07:51:33;99787.69;;;9.51;48.57
13387;BME280;6763;48.524;9.044;2023-02-12T07:53:59;99785.34;;;9.66;49.16
13387;BME280;6763;48.524;9.044;2023-02-12T07:56:27;99784.75;;;9.82;48.56
13387;BME280;6763;48.524;9.044;2023-02-12T07:58:58;99773.84;;;9.99;48.06
13387;BME280;6763;48.524;9.044;2023-02-12T08:01:33;99768.03;;;10.14;47.74
13387;BME280;6763;48.524;9.044;2023-02-12T08:04:02;99778.59;;;10.26;47.08
13387;BME280;6763;48.524;9.044;2023-02-12T08:06:30;99769.19;;;10.33;46.74
13387;BME280;6763;48.524;9.044;2023-02-12T08:08:58;99767.63;;;10.45;47.17
13387;BME280;6763;48.524;9.044;2023-02-12T08:11:24;99777.34;;;10.60;46.68
13387;BME280;6763;48.524;9.044;2023-02-12T08:13:51;99779.25;;;10.75;46.45
13387;BME280;6763;48.524;9.044;2023-02-12T08:16:19;99776.00;;;10.91;46.65
13387;BME280;6763;48.524;9.044;2023-02-12T08:18:45;99770.16;;;11.08;46.15
13387;BME280;6763;48.524;9.044;2023-02-12T08:21:25;99773.78;;;11.23;45.40
13387;BME280;6763;48.524;9.044;2023-02-12T08:23:53;99774.72;;;11.32;45.41
13387;BME280;6763;48.524;9.044;2023-02-12T08:26:24;99775.72;;;11.43;45.18
13387;BME280;6763;48.524;9.044;2023-02-12T08:28:58;99777.56;;;11.58;45.33
13387;BME280;6763;48.524;9.044;2023-02-12T08:31:29;99771.69;;;11.74;44.66
13387;BME280;6763;48.524;9.044;2023-02-12T08:33:55;99766.63;;;11.91;44.62
13387;BME280;6763;48.524;9.044;2023-02-12T08:36:24;99760.69;;;12.04;44.21
13387;BME280;6763;48.524;9.044;2023-02-12T08:38:50;99764.22;;;12.15;44.29
13387;BME280;6763;48.524;9.044;2023-02-12T08:41:21;99757.34;;;12.23;43.58
13387;BME280;6763;48.524;9.044;2023-02-12T08:43:47;99759.13;;;12.30;43.64
13387;BME280;6763;48.524;9.044;2023-02-12T08:46:19;99763.50;;;12.35;43.67
13387;BME280;6763;48.524;9.044;2023-02-12T08:48:45;99756.63;;;12.42;43.60
13387;BME280;6763;48.524;9.044;2023-02-12T08:51:14;99759.22;;;12.48;43.58
13387;BME280;6763;48.524;9.044;2023-02-12T08:53:42;99759.25;;;12.56;43.58
13387;BME280;6763;48.524;9.044;2023-02-12T08:56:09;99755.84;;;12.61;42.64
13387;BME280;6763;48.524;9.044;2023-02-12T08:58:35;99759.34;;;12.68;42.80
13387;BME280;6763;48.524;9.044;2023-02-12T09:01:02;99750.72;;;12.73;42.73
13387;BME280;6763;48.524;9.044;2023-02-12T09:03:28;99753.34;;;12.81;42.26
13387;BME280;6763;48.524;9.044;2023-02-12T09:05:53;99748.16;;;12.90;42.59
13387;BME280;6763;48.524;9.044;2023-02-12T09:08:20;99747.34;;;13.01;41.76
13387;BME280;6763;48.524;9.044;2023-02-12T09:10:45;99740.47;;;13.14;42.25
13387;BME280;6763;48.524;9.044;2023-02-12T09:13:12;99739.63;;;13.32;42.00
13387;BME280;6763;48.524;9.044;2023-02-12T09:15:41;99742.25;;;13.50;41.48
13387;BME280;6763;48.524;9.044;2023-02-12T09:18:08;99748.34;;;13.65;41.67
13387;BME280;6763;48.524;9.044;2023-02-12T09:20:37;99752.66;;;13.80;41.18
13387;BME280;6763;48.524;9.044;2023-02-12T09:23:04;99744.88;;;13.92;40.96
13387;BME280;6763;48.524;9.044;2023-02-12T09:25:30;99745.72;;;14.08;40.51
13387;BME280;6763;48.524;9.044;2023-02-12T09:27:55;99744.84;;;14.18;40.78
13387;BME280;6763;48.524;9.044;2023-02-12T09:30:21;99752.66;;;14.28;40.46
13387;BME280;6763;48.524;9.044;2023-02-12T09:32:47;99750.94;;;14.37;39.98
13387;BME280;6763;48.524;9.044;2023-02-12T09:35:12;99746.56;;;14.43;40.13
13387;BME280;6763;48.524;9.044;2023-02-12T09:37:38;99750.88;;;14.49;40.05
13387;BME280;6763;48.524;9.044;2023-02-12T09:43:02;99755.19;;;14.60;39.51
13387;BME280;6763;48.524;9.044;2023-02-12T09:45:34;99749.94;;;14.69;39.53
13387;BME280;6763;48.524;9.044;2023-02-12T09:51:02;99743.78;;;14.90;38.98
13387;BME280;6763;48.524;9.044;2023-02-12T09:53:31;99753.28;;;15.00;39.08
13387;BME280;6763;48.524;9.044;2023-02-12T09:55:59;99754.97;;;15.10;38.86
13387;BME280;6763;48.524;9.044;2023-02-12T09:58:48;99753.16;;;15.23;38.42
13387;BME280;6763;48.524;9.044;2023-02-12T10:01:20;99754.84;;;15.31;38.38
13387;BME280;6763;48.524;9.044;2023-02-12T10:03:48;99753.06;;;15.36;38.54
13387;BME280;6763;48.524;9.044;2023-02-12T10:06:26;99747.81;;;15.41;38.29
13387;BME280;6763;48.524;9.044;2023-02-12T10:08:58;99751.31;;;15.47;38.15
13387;BME280;6763;48.524;9.044;2023-02-12T10:22:49;99742.19;;;15.95;37.65
13387;BME280;6763;48.524;9.044;2023-02-12T10:25:26;99744.72;;;16.06;37.42
13387;BME280;6763;48.524;9.044;2023-02-12T10:27:58;99744.63;;;16.18;37.56
13387;BME280;6763;48.524;9.044;2023-02-12T10:30:42;99744.53;;;16.26;37.02
13387;BME280;6763;48.524;9.044;2023-02-12T10:33:30;99742.72;;;16.34;37.09
13387;BME280;6763;48.524;9.044;2023-02-12T10:36:24;99746.00;;;16.52;37.11
13387;BME280;6763;48.524;9.044;2023-02-12T10:38:51;99739.72;;;16.70;36.71
13387;BME280;6763;48.524;9.044;2023-02-12T10:41:20;99730.88;;;16.80;36.17
13387;BME280;6763;48.524;9.044;2023-02-12T10:43:48;99725.63;;;16.82;36.23
13387;BME280;6763;48.524;9.044;2023-02-12T10:46:15;99731.69;;;16.85;36.29
13387;BME280;6763;48.524;9.044;2023-02-12T10:48:43;99725.47;;;16.94;36.29
13387;BME280;6763;48.524;9.044;2023-02-12T10:51:17;99711.47;;;16.98;36.11
13387;BME280;6763;48.524;9.044;2023-02-12T10:53:45;99719.31;;;16.98;35.88
13387;BME280;6763;48.524;9.044;2023-02-12T10:58:42;99723.34;;;17.20;35.52
13387;BME280;6763;48.524;9.044;2023-02-12T11:01:37;99716.28;;;17.26;35.43
13387;BME280;6763;48.524;9.044;2023-02-12T11:09:37;99706.56;;;17.33;35.13
13387;BME280;6763;48.524;9.044;2023-02-12T11:12:39;99713.66;;;17.25;35.39
13387;BME280;6763;48.524;9.044;2023-02-12T11:15:17;99715.50;;;17.20;35.13
13387;BME280;6763;48.524;9.044;2023-02-12T11:20:49;99701.16;;;16.84;35.90
13387;BME280;6763;48.524;9.044;2023-02-12T11:28:23;99705.13;;;17.12;35.30
13387;BME280;6763;48.524;9.044;2023-02-12T11:30:56;99695.50;;;17.16;35.32
13387;BME280;6763;48.524;9.044;2023-02-12T11:33:32;99695.38;;;17.23;34.92
13387;BME280;6763;48.524;9.044;2023-02-12T11:36:03;99693.59;;;17.25;35.39
13387;BME280;6763;48.524;9.044;2023-02-12T11:38:37;99692.66;;;17.31;34.99
13387;BME280;6763;48.524;9.044;2023-02-12T11:41:08;99695.25;;;17.32;35.04
13387;BME280;6763;48.524;9.044;2023-02-12T11:43:41;99697.72;;;17.42;35.29
13387;BME280;6763;48.524;9.044;2023-02-12T11:46:07;99688.81;;;17.52;34.94
13387;BME280;6763;48.524;9.044;2023-02-12T11:48:38;99686.25;;;17.50;34.42
13387;BME280;6763;48.524;9.044;2023-02-12T11:51:08;99686.63;;;17.27;34.87
13387;BME280;6763;48.524;9.044;2023-02-12T11:53:47;99684.47;;;16.96;35.21
13387;BME280;6763;48.524;9.044;2023-02-12T11:56:13;99687.44;;;16.70;35.87
13387;BME280;6763;48.524;9.044;2023-02-12T11:58:39;99674.28;;;16.73;35.77
13387;BME280;6763;48.524;9.044;2023-02-12T12:01:33;99682.22;;;17.29;35.61
13387;BME280;6763;48.524;9.044;2023-02-12T12:04:02;99677.19;;;18.20;34.48
13387;BME280;6763;48.524;9.044;2023-02-12T12:09:16;99669.41;;;18.99;32.59
13387;BME280;6763;48.524;9.044;2023-02-12T12:12:09;99673.94;;;18.93;32.38
13387;BME280;6763;48.524;9.044;2023-02-12T12:14:54;99656.16;;;18.67;31.96
13387;BME280;6763;48.524;9.044;2023-02-12T12:17:58;99676.75;;;17.96;33.44
13387;BME280;6763;48.524;9.044;2023-02-12T12:23:15;99667.94;;;16.94;35.11
13387;BME280;6763;48.524;9.044;2023-02-12T12:25:46;99670.88;;;16.68;35.78
13387;BME280;6763;48.524;9.044;2023-02-12T12:28:30;99664.91;;;16.60;36.28
13387;BME280;6763;48.524;9.044;2023-02-12T12:33:49;99660.81;;;17.03;36.01
13387;BME280;6763;48.524;9.044;2023-02-12T12:50:53;99643.56;;;20.22;30.90
13387;BME280;6763;48.524;9.044;2023-02-12T12:53:36;99641.03;;;21.09;29.89
13387;BME280;6763;48.524;9.044;2023-02-12T13:04:56;99621.56;;;22.16;27.74
13387;BME280;6763;48.524;9.044;2023-02-12T13:08:07;99627.84;;;22.37;27.53
13387;BME280;6763;48.524;9.044;2023-02-12T13:10:48;99625.88;;;22.18;27.82
13387;BME280;6763;48.524;9.044;2023-02-12T13:13:36;99620.94;;;22.09;27.66
13387;BME280;6763;48.524;9.044;2023-02-12T13:18:40;99620.63;;;22.42;27.52
13387;BME280;6763;48.524;9.044;2023-02-12T13:24:13;99619.50;;;21.50;28.19
13387;BME280;6763;48.524;9.044;2023-02-12T13:26:56;99613.75;;;21.11;28.99
13387;BME280;6763;48.524;9.044;2023-02-12T13:29:43;99609.44;;;20.79;29.32
13387;BME280;6763;48.524;9.044;2023-02-12T13:32:35;99617.59;;;20.72;29.41
13387;BME280;6763;48.524;9.044;2023-02-12T13:34:59;99605.91;;;20.80;29.51
13387;BME280;6763;48.524;9.044;2023-02-12T13:37:32;99604.19;;;21.09;29.53
13387;BME280;6763;48.524;9.044;2023-02-12T13:40:05;99599.63;;;21.14;29.18
13387;BME280;6763;48.524;9.044;2023-02-12T13:42:42;99607.91;;;21.28;29.20
13387;BME280;6763;48.524;9.044;2023-02-12T13:47:50;99598.25;;;21.28;28.92
13387;BME280;6763;48.524;9.044;2023-02-12T13:50:40;99602.19;;;21.15;29.10
13387;BME280;6763;48.524;9.044;2023-02-12T13:53:19;99597.88;;;20.85;29.32
13387;BME280;6763;48.524;9.044;2023-02-12T13:56:11;99602.75;;;20.40;30.26
13387;BME280;6763;48.524;9.044;2023-02-12T13:58:52;99595.66;;;20.42;30.28
13387;BME280;6763;48.524;9.044;2023-02-12T14:07:16;99590.06;;;20.23;30.93
13387;BME280;6763;48.524;9.044;2023-02-12T14:14:50;99583.38;;;20.12;30.70
13387;BME280;6763;48.524;9.044;2023-02-12T14:20:23;99584.25;;;20.98;29.89
13387;BME280;6763;48.524;9.044;2023-02-12T14:27:56;99562.09;;;21.83;28.15
13387;BME280;6763;48.524;9.044;2023-02-12T14:30:36;99553.06;;;21.90;28.13
13387;BME280;6763;48.524;9.044;2023-02-12T14:35:35;99553.69;;;21.72;28.29
13387;BME280;6763;48.524;9.044;2023-02-12T14:38:07;99552.19;;;21.91;28.37
13387;BME280;6763;48.524;9.044;2023-02-12T14:40:49;99552.56;;;22.28;27.73
13387;BME280;6763;48.524;9.044;2023-02-12T14:51:33;99537.72;;;23.34;26.54
13387;BME280;6763;48.524;9.044;2023-02-12T14:54:01;99544.81;;;23.54;26.10
13387;BME280;6763;48.524;9.044;2023-02-12T14:56:32;99534.19;;;23.55;25.79
13387;BME280;6763;48.524;9.044;2023-02-12T14:59:03;99544.56;;;23.18;25.97
13387;BME280;6763;48.524;9.044;2023-02-12T15:01:33;99551.78;;;22.93;26.44
13387;BME280;6763;48.524;9.044;2023-02-12T15:04:20;99549.06;;;22.94;26.49
13387;BME280;6763;48.524;9.044;2023-02-12T15:06:52;99538.16;;;23.03;26.43
13387;BME280;6763;48.524;9.044;2023-02-12T15:09:25;99547.34;;;23.15;26.08
13387;BME280;6763;48.524;9.044;2023-02-12T15:12:06;99537.53;;;22.97;25.96
13387;BME280;6763;48.524;9.044;2023-02-12T15:14:39;99543.78;;;22.49;26.84
13387;BME280;6763;48.524;9.044;2023-02-12T15:17:26;99544.66;;;22.50;26.99
13387;BME280;6763;48.524;9.044;2023-02-12T15:19:56;99537.63;;;22.27;27.03
13387;BME280;6763;48.524;9.044;2023-02-12T15:22:37;99541.59;;;21.66;27.66
13387;BME280;6763;48.524;9.044;2023-02-12T15:25:26;99560.75;;;21.20;28.62
13387;BME280;6763;48.524;9.044;2023-02-12T15:28:01;99554.41;;;20.99;28.94
13387;BME280;6763;48.524;9.044;2023-02-12T15:30:31;99553.69;;;20.94;29.00
13387;BME280;6763;48.524;9.044;2023-02-12T15:33:00;99551.50;;;20.24;29.96
13387;BME280;6763;48.524;9.044;2023-02-12T15:35:28;99554.13;;;19.27;31.37
13387;BME280;6763;48.524;9.044;2023-02-12T15:37:55;99557.91;;;18.40;32.67
13387;BME280;6763;48.524;9.044;2023-02-12T15:40:21;99566.22;;;17.76;33.75
13387;BME280;6763;48.524;9.044;2023-02-12T15:43:05;99555.66;;;17.30;34.93
13387;BME280;6763;48.524;9.044;2023-02-12T15:45:35;99573.91;;;16.82;36.01
13387;BME280;6763;48.524;9.044;2023-02-12T15:48:12;99573.47;;;16.54;36.42
13387;BME280;6763;48.524;9.044;2023-02-12T15:50:51;99571.13;;;16.30;37.47
13387;BME280;6763;48.524;9.044;2023-02-12T15:53:18;99562.69;;;16.09;37.68
13387;BME280;6763;48.524;9.044;2023-02-12T15:55:45;99565.50;;;15.93;38.09
13387;BME280;6763;48.524;9.044;2023-02-12T15:58:42;99563.16;;;15.67;38.82